createdAt,value
2023-02-17T00:00:54.111Z,-1.26
2023-02-17T00:04:03.939Z,-1.07
2023-02-17T00:07:10.616Z,-1.14
2023-02-17T00:10:16.562Z,-1.20
2023-02-17T00:13:23.228Z,-1.17
2023-02-17T00:16:32.331Z,-1.22
2023-02-17T00:19:41.663Z,-1.19
2023-02-17T00:22:47.568Z,-1.20
2023-02-17T00:25:54.278Z,-1.21
2023-02-17T00:29:02.084Z,-1.35
2023-02-17T00:32:10.709Z,-1.40
2023-02-17T00:35:19.882Z,-1.48
2023-02-17T00:38:26.845Z,-1.49
2023-02-17T00:41:33.802Z,-1.52
2023-02-17T00:44:40.486Z,-1.54
2023-02-17T00:47:46.255Z,-1.53
2023-02-17T00:50:55.582Z,-1.61
2023-02-17T00:54:01.417Z,-1.60
2023-02-17T00:57:08.268Z,-1.56
2023-02-17T01:00:16.083Z,-1.60
2023-02-17T01:03:23.159Z,-1.58
2023-02-17T01:06:36.807Z,-1.55
2023-02-17T01:09:43.548Z,-1.55
2023-02-17T01:12:49.370Z,-1.55
2023-02-17T01:15:57.075Z,-1.50
2023-02-17T01:19:03.686Z,-1.48
2023-02-17T01:22:13.810Z,-1.49
2023-02-17T01:25:19.830Z,-1.43
2023-02-17T01:28:26.721Z,-1.50
2023-02-17T01:31:39.447Z,-1.48
2023-02-17T01:34:46.341Z,-1.39
2023-02-17T01:37:54.778Z,-1.28
2023-02-17T01:41:07.797Z,-1.28
2023-02-17T01:44:21.987Z,-1.30
2023-02-17T01:47:32.840Z,-1.23
2023-02-17T01:50:48.222Z,-1.14
2023-02-17T01:54:10.573Z,-1.12
2023-02-17T01:57:26.786Z,-1.15
2023-02-17T02:00:44.117Z,-1.10
2023-02-17T02:03:53.576Z,-0.97
2023-02-17T02:07:04.975Z,-1.03
2023-02-17T02:10:17.562Z,-0.94
2023-02-17T02:13:24.925Z,-0.93
2023-02-17T02:16:49.803Z,-0.93
2023-02-17T02:20:31.542Z,-0.92
2023-02-17T02:24:08.319Z,-0.88
2023-02-17T02:27:48.952Z,-0.81
2023-02-17T02:31:27.705Z,-0.72
2023-02-17T02:34:55.245Z,-0.71
2023-02-17T02:38:12.218Z,-0.58
2023-02-17T02:41:29.652Z,-0.58
2023-02-17T02:44:35.599Z,-0.57
2023-02-17T02:47:56.144Z,-0.50
2023-02-17T02:51:35.564Z,-0.45
2023-02-17T02:55:00.652Z,-0.45
2023-02-17T02:58:22.401Z,-0.37
2023-02-17T03:01:47.370Z,-0.52
2023-02-17T03:05:14.249Z,-0.45
2023-02-17T03:08:36.317Z,-0.31
2023-02-17T03:11:49.129Z,-0.27
2023-02-17T03:15:08.212Z,-0.33
2023-02-17T03:18:14.424Z,-0.31
2023-02-17T03:21:23.052Z,-0.30
2023-02-17T03:24:36.463Z,-0.28
2023-02-17T03:27:46.744Z,-0.30
2023-02-17T03:30:53.794Z,-0.21
2023-02-17T03:34:02.452Z,-0.26
2023-02-17T03:37:08.274Z,-0.14
2023-02-17T03:40:17.769Z,-0.13
2023-02-17T03:43:23.877Z,-0.00
2023-02-17T03:46:30.870Z,0.05
2023-02-17T03:49:36.927Z,-0.04
2023-02-17T03:52:43.611Z,-0.01
2023-02-17T03:55:52.220Z,-0.00
2023-02-17T03:58:59.029Z,0.05
2023-02-17T04:02:04.925Z,0.14
2023-02-17T04:05:12.007Z,0.11
2023-02-17T04:08:18.019Z,0.16
2023-02-17T04:11:27.576Z,0.13
2023-02-17T04:14:33.507Z,0.32
2023-02-17T04:17:41.096Z,0.42
2023-02-17T04:20:47.385Z,0.31
2023-02-17T04:23:55.311Z,0.22
2023-02-17T04:27:03.937Z,0.33
2023-02-17T04:30:12.924Z,0.38
2023-02-17T04:33:20.344Z,0.37
2023-02-17T04:36:28.186Z,0.37
2023-02-17T04:39:34.100Z,0.42
2023-02-17T04:42:43.470Z,0.40
2023-02-17T04:45:49.344Z,0.37
2023-02-17T04:48:56.237Z,0.36
2023-02-17T04:52:02.360Z,0.48
2023-02-17T04:55:11.244Z,0.53
2023-02-17T04:58:20.958Z,0.54
2023-02-17T05:01:27.769Z,0.49
2023-02-17T05:04:34.395Z,0.49
2023-02-17T05:07:41.087Z,0.37
2023-02-17T05:10:47.385Z,0.35
2023-02-17T05:13:56.743Z,0.36
2023-02-17T05:17:02.627Z,0.27
2023-02-17T05:20:12.748Z,0.26
2023-02-17T05:23:18.706Z,0.19
2023-02-17T05:26:25.445Z,0.17
2023-02-17T05:29:33.972Z,0.23
2023-02-17T05:32:40.713Z,0.20
2023-02-17T05:35:46.608Z,0.19
2023-02-17T05:38:53.498Z,0.30
2023-02-17T05:41:59.472Z,0.26
2023-02-17T05:45:09.593Z,0.36
2023-02-17T05:48:15.686Z,0.44
2023-02-17T05:51:22.451Z,0.42
2023-02-17T05:54:28.374Z,0.47
2023-02-17T05:57:35.695Z,0.43
2023-02-17T06:00:44.195Z,0.52
2023-02-17T06:03:51.377Z,0.66
2023-02-17T06:06:57.303Z,0.69
2023-02-17T06:10:04.049Z,0.71
2023-02-17T06:13:09.953Z,0.69
2023-02-17T06:16:19.361Z,0.78
2023-02-17T06:19:25.228Z,0.83
2023-02-17T06:22:31.882Z,0.87
2023-02-17T06:25:37.788Z,0.98
2023-02-17T06:28:44.535Z,1.01
2023-02-17T06:31:53.207Z,1.02
2023-02-17T06:34:59.915Z,1.11
2023-02-17T06:38:05.832Z,1.16
2023-02-17T06:41:12.604Z,1.14
2023-02-17T06:44:18.502Z,1.16
2023-02-17T06:47:27.809Z,1.16
2023-02-17T06:50:33.704Z,1.35
2023-02-17T06:53:40.554Z,1.35
2023-02-17T06:56:46.781Z,1.39
2023-02-17T06:59:53.487Z,1.56
2023-02-17T07:03:02.123Z,1.62
2023-02-17T07:06:09.501Z,1.65
2023-02-17T07:09:15.449Z,1.74
2023-02-17T07:12:22.231Z,1.65
2023-02-17T07:15:28.510Z,1.98
2023-02-17T07:18:38.343Z,2.05
2023-02-17T07:21:44.446Z,2.21
2023-02-17T07:24:51.332Z,2.28
2023-02-17T07:27:57.343Z,2.33
2023-02-17T07:31:09.767Z,2.22
2023-02-17T07:34:18.336Z,2.20
2023-02-17T07:37:25.211Z,2.32
2023-02-17T07:40:31.994Z,2.44
2023-02-17T07:43:38.913Z,2.38
2023-02-17T07:46:45.042Z,2.22
2023-02-17T07:49:54.466Z,2.40
2023-02-17T07:53:00.347Z,2.39
2023-02-17T07:56:08.547Z,2.45
2023-02-17T07:59:16.396Z,2.52
2023-02-17T08:02:23.258Z,2.68
2023-02-17T08:05:31.911Z,2.63
2023-02-17T08:08:51.124Z,2.70
2023-02-17T08:12:09.606Z,2.75
2023-02-17T08:15:17.082Z,2.78
2023-02-17T08:18:23.058Z,2.69
2023-02-17T08:21:33.524Z,2.67
2023-02-17T08:24:39.389Z,2.75
2023-02-17T08:27:46.277Z,2.74
2023-02-17T08:30:52.177Z,2.69
2023-02-17T08:34:00.438Z,2.60
2023-02-17T08:37:10.238Z,2.45
2023-02-17T08:40:17.050Z,2.41
2023-02-17T08:43:22.905Z,2.48
2023-02-17T08:46:31.268Z,2.40
2023-02-17T08:49:37.341Z,2.36
2023-02-17T08:52:46.675Z,2.40
2023-02-17T08:55:52.460Z,2.48
2023-02-17T08:59:00.255Z,2.47
2023-02-17T09:02:06.320Z,2.57
2023-02-17T09:05:13.983Z,2.52
2023-02-17T09:08:23.466Z,2.58
2023-02-17T09:11:30.545Z,2.63
2023-02-17T09:14:36.828Z,2.82
2023-02-17T09:17:44.379Z,2.82
2023-02-17T09:20:50.520Z,2.65
2023-02-17T09:24:00.009Z,2.76
2023-02-17T09:27:06.100Z,2.77
2023-02-17T09:30:14.867Z,2.63
2023-02-17T09:33:20.801Z,2.65
2023-02-17T09:36:33.746Z,2.66
2023-02-17T09:39:42.334Z,2.85
2023-02-17T09:42:50.543Z,2.86
2023-02-17T09:46:04.369Z,2.82
2023-02-17T09:49:19.270Z,2.89
2023-02-17T09:52:36.537Z,3.06
2023-02-17T09:55:54.844Z,3.17
2023-02-17T09:59:10.343Z,3.10
2023-02-17T10:02:31.251Z,3.18
2023-02-17T10:05:45.562Z,3.22
2023-02-17T10:09:02.131Z,3.28
2023-02-17T10:12:18.889Z,3.28
2023-02-17T10:15:34.721Z,3.08
2023-02-17T10:18:50.619Z,3.24
2023-02-17T10:22:14.022Z,3.24
2023-02-17T10:25:28.226Z,3.17
2023-02-17T10:28:54.065Z,3.18
2023-02-17T10:32:22.484Z,3.30
2023-02-17T10:35:51.328Z,3.47
2023-02-17T10:39:09.614Z,3.36
2023-02-17T10:42:28.291Z,3.35
2023-02-17T10:45:41.397Z,3.38
2023-02-17T10:48:55.473Z,3.39
2023-02-17T10:52:09.062Z,3.38
2023-02-17T10:55:28.622Z,3.52
2023-02-17T10:58:44.357Z,3.69
2023-02-17T11:01:54.820Z,3.76
2023-02-17T11:05:00.822Z,3.74
2023-02-17T11:08:31.293Z,3.61
2023-02-17T11:11:40.033Z,3.55
2023-02-17T11:14:51.965Z,3.63
2023-02-17T11:18:11.910Z,3.62
2023-02-17T11:21:19.007Z,3.60
2023-02-17T11:24:25.549Z,3.70
2023-02-17T11:27:33.360Z,3.60
2023-02-17T11:30:41.715Z,3.65
2023-02-17T11:33:51.173Z,3.69
2023-02-17T11:37:07.236Z,3.52
2023-02-17T11:40:29.252Z,3.52
2023-02-17T11:43:36.031Z,3.62
2023-02-17T11:46:55.920Z,3.62
2023-02-17T11:50:41.277Z,3.68
2023-02-17T11:54:07.789Z,3.75
2023-02-17T11:57:39.260Z,3.72
2023-02-17T12:01:12.097Z,3.71
2023-02-17T12:04:30.975Z,3.69
2023-02-17T12:08:02.796Z,3.57
2023-02-17T12:11:32.181Z,3.64
2023-02-17T12:15:10.175Z,3.57
2023-02-17T12:18:42.397Z,3.63
2023-02-17T12:22:11.752Z,3.75
2023-02-17T12:25:31.150Z,3.78
2023-02-17T12:29:31.954Z,3.72
2023-02-17T12:33:08.193Z,3.78
2023-02-17T12:36:26.852Z,3.74
2023-02-17T12:39:44.690Z,3.89
2023-02-17T12:43:05.118Z,3.78
2023-02-17T12:46:23.280Z,3.73
2023-02-17T12:49:40.609Z,3.73
2023-02-17T12:53:03.678Z,3.65
2023-02-17T12:56:51.136Z,3.71
2023-02-17T13:00:05.616Z,3.63
2023-02-17T13:03:13.898Z,3.64
2023-02-17T13:06:39.452Z,3.76
2023-02-17T13:09:56.661Z,3.81
2023-02-17T13:13:21.274Z,3.84
2023-02-17T13:16:35.599Z,3.82
2023-02-17T13:19:42.267Z,3.81
2023-02-17T13:22:51.422Z,3.99
2023-02-17T13:26:29.373Z,4.15
2023-02-17T13:29:39.416Z,4.17
2023-02-17T13:33:08.917Z,4.29
2023-02-17T13:36:20.846Z,4.26
2023-02-17T13:39:41.792Z,4.16
2023-02-17T13:42:50.458Z,4.29
2023-02-17T13:46:10.955Z,4.37
2023-02-17T13:49:29.535Z,4.34
2023-02-17T13:52:36.111Z,4.35
2023-02-17T13:55:43.562Z,4.44
2023-02-17T13:58:49.412Z,4.46
2023-02-17T14:01:58.006Z,4.47
2023-02-17T14:05:21.850Z,4.47
2023-02-17T14:08:40.174Z,4.50
2023-02-17T14:11:46.304Z,4.56
2023-02-17T14:14:53.719Z,4.40
2023-02-17T14:18:00.275Z,4.38
2023-02-17T14:21:13.262Z,4.32
2023-02-17T14:24:32.201Z,4.41
2023-02-17T14:27:47.277Z,4.42
2023-02-17T14:30:54.713Z,4.41
2023-02-17T14:34:05.979Z,4.19
2023-02-17T14:37:31.173Z,4.25
2023-02-17T14:40:40.013Z,4.27
2023-02-17T14:43:46.056Z,4.24
2023-02-17T14:46:52.782Z,4.23
2023-02-17T14:49:58.737Z,4.09
2023-02-17T14:53:17.614Z,4.15
2023-02-17T14:56:32.671Z,4.19
2023-02-17T14:59:39.836Z,4.26
2023-02-17T15:02:45.987Z,4.29
2023-02-17T15:05:53.485Z,4.41
2023-02-17T15:09:04.275Z,4.32
2023-02-17T15:12:20.233Z,4.33
2023-02-17T15:15:26.575Z,4.32
2023-02-17T15:18:33.547Z,4.36
2023-02-17T15:21:43.239Z,4.45
2023-02-17T15:24:53.236Z,4.41
2023-02-17T15:27:59.504Z,4.28
2023-02-17T15:31:06.747Z,4.45
2023-02-17T15:34:18.970Z,4.46
2023-02-17T15:37:25.886Z,4.50
2023-02-17T15:40:34.908Z,4.58
2023-02-17T15:43:41.921Z,4.52
2023-02-17T15:46:49.066Z,4.58
2023-02-17T15:49:55.825Z,4.57
2023-02-17T15:53:02.728Z,4.63
2023-02-17T15:56:22.335Z,4.74
2023-02-17T15:59:31.123Z,4.77
2023-02-17T16:02:37.959Z,4.74
2023-02-17T16:05:45.537Z,4.83
2023-02-17T16:08:52.545Z,4.81
2023-02-17T16:12:01.815Z,4.85
2023-02-17T16:15:14.226Z,4.80
2023-02-17T16:18:26.009Z,4.65
2023-02-17T16:21:39.561Z,4.66
2023-02-17T16:24:47.031Z,4.69
2023-02-17T16:27:58.087Z,4.65
2023-02-17T16:31:13.822Z,4.70
2023-02-17T16:34:24.882Z,4.71
2023-02-17T16:37:30.968Z,4.63
2023-02-17T16:40:47.338Z,4.64
2023-02-17T16:43:58.942Z,4.74
2023-02-17T16:47:08.987Z,4.75
2023-02-17T16:50:27.126Z,4.73
2023-02-17T16:53:33.993Z,4.85
2023-02-17T16:56:46.496Z,4.92
2023-02-17T16:59:56.183Z,4.95
2023-02-17T17:03:04.998Z,4.94
2023-02-17T17:06:25.719Z,4.99
2023-02-17T17:09:31.636Z,5.04
2023-02-17T17:12:38.882Z,4.99
2023-02-17T17:15:49.084Z,5.02
2023-02-17T17:18:56.309Z,5.19
2023-02-17T17:22:04.960Z,5.16
2023-02-17T17:25:18.517Z,5.28
2023-02-17T17:28:26.562Z,5.22
2023-02-17T17:31:40.965Z,5.19
2023-02-17T17:34:47.176Z,5.24
2023-02-17T17:37:54.289Z,5.33
2023-02-17T17:41:00.292Z,5.32
2023-02-17T17:44:10.481Z,5.35
2023-02-17T17:47:29.821Z,5.42
2023-02-17T17:50:36.792Z,5.42
2023-02-17T17:53:42.892Z,5.49
2023-02-17T17:56:50.504Z,5.46
2023-02-17T17:59:58.172Z,5.45
2023-02-17T18:03:08.017Z,5.30
2023-02-17T18:06:21.886Z,5.25
2023-02-17T18:09:36.035Z,5.11
2023-02-17T18:12:45.334Z,5.07
2023-02-17T18:15:52.635Z,4.99
2023-02-17T18:19:06.091Z,4.97
2023-02-17T18:22:16.323Z,5.03
2023-02-17T18:25:23.200Z,5.01
2023-02-17T18:28:30.034Z,5.01
2023-02-17T18:31:38.120Z,5.06
2023-02-17T18:34:47.449Z,5.06
2023-02-17T18:37:53.915Z,5.07
2023-02-17T18:41:03.210Z,5.15
2023-02-17T18:44:11.207Z,5.18
2023-02-17T18:47:18.024Z,5.25
2023-02-17T18:50:27.107Z,5.27
2023-02-17T18:53:36.245Z,5.27
2023-02-17T18:56:42.326Z,5.33
2023-02-17T18:59:50.788Z,5.43
2023-02-17T19:03:03.484Z,5.48
2023-02-17T19:06:19.422Z,5.47
2023-02-17T19:09:25.306Z,5.55
2023-02-17T19:12:32.159Z,5.56
2023-02-17T19:15:38.161Z,5.60
2023-02-17T19:18:46.949Z,5.64
2023-02-17T19:21:56.093Z,5.64
2023-02-17T19:25:07.012Z,5.73
2023-02-17T19:28:13.134Z,5.77
2023-02-17T19:31:23.452Z,5.63
2023-02-17T19:34:31.357Z,5.61
2023-02-17T19:37:43.662Z,5.52
2023-02-17T19:40:50.658Z,5.64
2023-02-17T19:43:57.379Z,5.56
2023-02-17T19:47:05.007Z,5.65
2023-02-17T19:50:12.352Z,5.65
2023-02-17T19:53:27.601Z,5.66
2023-02-17T19:56:37.157Z,5.61
2023-02-17T19:59:43.017Z,5.61
2023-02-17T20:02:50.220Z,5.56
2023-02-17T20:05:56.179Z,5.55
2023-02-17T20:09:14.878Z,5.63
2023-02-17T20:12:21.939Z,5.70
2023-02-17T20:15:28.864Z,5.71
2023-02-17T20:18:34.772Z,5.69
2023-02-17T20:21:47.176Z,5.76
2023-02-17T20:24:55.720Z,5.71
2023-02-17T20:28:04.380Z,5.75
2023-02-17T20:31:11.980Z,5.81
2023-02-17T20:34:34.901Z,5.87
2023-02-17T20:37:40.748Z,5.96
2023-02-17T20:40:50.122Z,5.89
2023-02-17T20:43:56.344Z,6.02
2023-02-17T20:47:17.587Z,6.05
2023-02-17T20:50:26.171Z,6.19
2023-02-17T20:53:32.903Z,6.23
2023-02-17T20:56:45.376Z,6.25
2023-02-17T20:59:52.249Z,6.28
2023-02-17T21:02:58.590Z,6.30
2023-02-17T21:06:24.356Z,6.20
2023-02-17T21:09:30.698Z,6.28
2023-02-17T21:12:40.602Z,6.22
2023-02-17T21:15:46.794Z,6.23
2023-02-17T21:18:55.293Z,6.20
2023-02-17T21:22:01.522Z,6.23
2023-02-17T21:25:12.240Z,6.22
2023-02-17T21:28:25.445Z,6.24
2023-02-17T21:31:32.359Z,6.27
2023-02-17T21:34:42.032Z,6.26
2023-02-17T21:37:48.937Z,6.24
2023-02-17T21:40:55.033Z,6.26
2023-02-17T21:44:16.928Z,6.27
2023-02-17T21:47:26.912Z,6.25
2023-02-17T21:50:37.505Z,6.27
2023-02-17T21:53:43.790Z,6.30
2023-02-17T21:56:50.629Z,6.36
2023-02-17T21:59:59.245Z,6.35
2023-02-17T22:03:05.980Z,6.42
2023-02-17T22:06:22.435Z,6.51
2023-02-17T22:09:32.431Z,6.49
2023-02-17T22:12:39.842Z,6.42
2023-02-17T22:15:49.237Z,6.53
2023-02-17T22:18:55.457Z,6.59
2023-02-17T22:22:08.639Z,6.84
2023-02-17T22:25:33.526Z,6.99
2023-02-17T22:28:40.313Z,7.07
2023-02-17T22:31:50.630Z,7.07
2023-02-17T22:34:57.707Z,7.05
2023-02-17T22:38:03.702Z,7.06
2023-02-17T22:41:13.870Z,7.07
2023-02-17T22:44:20.023Z,7.09
2023-02-17T22:47:29.575Z,7.11
2023-02-17T22:50:35.547Z,7.07
2023-02-17T22:53:42.903Z,7.01
2023-02-17T22:56:48.945Z,7.07
2023-02-17T22:59:55.767Z,7.00
2023-02-17T23:03:04.374Z,6.93
2023-02-17T23:06:18.122Z,6.98
2023-02-17T23:09:24.064Z,6.77
2023-02-17T23:12:30.877Z,6.66
2023-02-17T23:15:42.562Z,6.56
2023-02-17T23:18:52.004Z,6.54
2023-02-17T23:22:03.187Z,6.64
2023-02-17T23:25:09.979Z,6.61
2023-02-17T23:28:16.010Z,6.52
2023-02-17T23:31:22.852Z,6.60
2023-02-17T23:34:32.183Z,6.55
2023-02-17T23:37:38.949Z,6.60
2023-02-17T23:40:45.561Z,6.63
2023-02-17T23:43:52.457Z,6.64
2023-02-17T23:46:58.286Z,6.56
2023-02-17T23:50:09.821Z,6.50
2023-02-17T23:53:15.896Z,6.54
2023-02-17T23:56:27.954Z,6.59
2023-02-17T23:59:40.667Z,6.59
